Time;durP1;ratioP1;P1;durP2;ratioP2;P2;SDS_P1;SDS_P2;PMS_P1;PMS_P2;Temp;Humidity;BMP_temperature;BMP_pressure;BME280_temperature;BME280_humidity;BME280_pressure;Samples;Min_cycle;Max_cycle;Signal;HPM_P1;HPM_P2
2023/04/23 00:00:53;;;;;;;18.15;15.70;;;13.80;70.90;;;;;;5054554;28;20029;-82
2023/04/23 00:03:22;;;;;;;18.60;14.80;;;13.70;70.90;;;;;;5020322;28;20028;-81
2023/04/23 00:05:51;;;;;;;19.20;15.32;;;13.70;70.90;;;;;;5036777;28;20062;-85
2023/04/23 00:08:18;;;;;;;19.73;15.65;;;13.70;70.90;;;;;;5020160;28;20378;-83
2023/04/23 00:10:44;;;;;;;17.48;14.23;;;13.70;70.90;;;;;;5020122;28;20380;-83
2023/04/23 00:13:10;;;;;;;20.38;15.88;;;13.60;70.90;;;;;;5044477;28;20021;-81
2023/04/23 00:15:36;;;;;;;19.73;15.75;;;13.60;70.90;;;;;;5022564;28;20021;-81
2023/04/23 00:18:02;;;;;;;19.27;15.38;;;13.60;70.90;;;;;;5020107;28;20052;-83
2023/04/23 00:20:28;;;;;;;18.73;15.25;;;13.60;70.90;;;;;;5054008;28;20029;-83
2023/04/23 00:22:54;;;;;;;19.30;15.57;;;13.60;71.00;;;;;;5037013;28;20025;-83
2023/04/23 00:25:20;;;;;;;18.90;15.27;;;13.50;70.90;;;;;;5036453;28;20036;-82
2023/04/23 00:27:46;;;;;;;18.60;15.25;;;13.50;71.00;;;;;;5020575;28;20033;-84
2023/04/23 00:30:12;;;;;;;20.02;15.43;;;13.50;71.00;;;;;;5019724;28;20025;-81
2023/04/23 00:32:38;;;;;;;20.35;16.58;;;13.50;71.10;;;;;;5019598;28;20025;-80
2023/04/23 00:35:04;;;;;;;20.55;15.10;;;13.40;71.00;;;;;;5019956;28;20040;-82
2023/04/23 00:37:30;;;;;;;17.73;14.60;;;13.50;71.10;;;;;;5019525;28;20064;-83
2023/04/23 00:39:56;;;;;;;18.92;15.30;;;13.40;71.00;;;;;;5019561;28;20029;-83
2023/04/23 00:42:22;;;;;;;18.92;14.93;;;13.40;71.00;;;;;;5036018;28;20036;-83
2023/04/23 00:44:49;;;;;;;19.48;15.68;;;13.40;71.10;;;;;;5019259;28;20143;-82
2023/04/23 00:47:15;;;;;;;19.58;15.00;;;13.40;71.20;;;;;;5036165;28;20481;-80
2023/04/23 00:49:41;;;;;;;19.35;15.82;;;13.30;71.10;;;;;;5035864;28;20084;-83
2023/04/23 00:52:07;;;;;;;19.60;15.68;;;13.30;71.10;;;;;;5019479;28;20120;-82
2023/04/23 00:54:33;;;;;;;19.77;15.50;;;13.30;71.10;;;;;;5003902;28;20070;-83
2023/04/23 00:57:00;;;;;;;20.00;14.85;;;13.30;71.10;;;;;;5002911;28;20036;-83
2023/04/23 00:59:27;;;;;;;19.85;15.70;;;13.20;71.10;;;;;;5035530;28;20080;-83
2023/04/23 01:01:54;;;;;;;19.33;14.90;;;13.20;71.10;;;;;;5019088;28;20504;-83
2023/04/23 01:04:23;;;;;;;18.08;14.32;;;13.20;71.10;;;;;;5019139;28;20052;-83
2023/04/23 01:06:49;;;;;;;20.15;15.80;;;13.20;71.10;;;;;;5035696;28;20037;-83
2023/04/23 01:09:17;;;;;;;19.75;15.25;;;13.20;71.20;;;;;;5019207;28;20120;-82
2023/04/23 01:11:43;;;;;;;18.65;15.35;;;13.10;71.10;;;;;;5019563;28;20040;-87
2023/04/23 01:14:10;;;;;;;17.85;14.07;;;13.10;71.10;;;;;;5019143;28;20055;-82
2023/04/23 01:16:40;;;;;;;19.67;15.23;;;13.10;71.10;;;;;;5035605;28;20029;-83
2023/04/23 01:19:08;;;;;;;19.38;14.80;;;13.10;71.20;;;;;;5035553;28;20029;-81
2023/04/23 01:21:41;;;;;;;20.02;15.88;;;13.10;71.20;;;;;;5035196;28;20082;-81
2023/04/23 01:24:08;;;;;;;18.95;14.48;;;13.00;71.20;;;;;;5035339;28;20039;-82
2023/04/23 01:26:38;;;;;;;19.45;14.77;;;13.00;71.20;;;;;;5036383;28;20156;-82
2023/04/23 01:29:04;;;;;;;20.33;15.85;;;13.00;71.20;;;;;;5019055;28;20029;-82
2023/04/23 01:31:31;;;;;;;20.55;15.60;;;13.00;71.20;;;;;;5035593;28;20139;-82
2023/04/23 01:33:59;;;;;;;19.80;15.77;;;13.00;71.20;;;;;;5019115;28;20029;-82
2023/04/23 01:36:25;;;;;;;19.58;15.43;;;12.90;71.20;;;;;;5035182;28;20055;-81
2023/04/23 01:38:53;;;;;;;21.98;16.27;;;12.90;71.20;;;;;;5019048;28;20028;-84
2023/04/23 01:41:21;;;;;;;19.80;15.60;;;12.90;71.20;;;;;;5035285;28;20024;-83
2023/04/23 01:43:47;;;;;;;19.50;15.35;;;12.80;71.20;;;;;;5020237;28;20539;-80
2023/04/23 01:46:15;;;;;;;18.92;14.82;;;12.80;71.20;;;;;;5006398;28;20037;-81
2023/04/23 01:48:41;;;;;;;18.90;14.68;;;12.80;71.20;;;;;;5038674;28;20029;-82
2023/04/23 01:51:08;;;;;;;19.48;15.00;;;12.80;71.20;;;;;;5039359;28;20489;-82
2023/04/23 01:53:33;;;;;;;20.23;15.88;;;12.80;71.20;;;;;;5022490;28;20095;-87
2023/04/23 01:56:00;;;;;;;19.60;15.73;;;12.80;71.20;;;;;;5039013;28;20029;-82
2023/04/23 01:58:26;;;;;;;20.27;15.70;;;12.80;71.20;;;;;;5022207;28;20029;-82
2023/04/23 02:00:52;;;;;;;21.05;15.40;;;12.80;71.20;;;;;;5039368;28;20025;-87
2023/04/23 02:03:18;;;;;;;19.70;15.27;;;12.70;71.20;;;;;;5038851;28;20477;-81
2023/04/23 02:05:44;;;;;;;19.67;15.27;;;12.70;71.20;;;;;;5022633;28;20527;-81
2023/04/23 02:08:10;;;;;;;18.85;15.00;;;12.70;71.10;;;;;;5006119;28;20049;-81
2023/04/23 02:10:37;;;;;;;19.88;15.18;;;12.60;71.10;;;;;;5022592;28;20086;-82
2023/04/23 02:13:03;;;;;;;18.23;15.02;;;12.60;71.20;;;;;;5038491;28;20032;-81
2023/04/23 02:15:29;;;;;;;19.58;15.20;;;12.70;71.20;;;;;;5038774;28;20033;-82
2023/04/23 02:17:55;;;;;;;18.88;14.88;;;12.60;71.10;;;;;;5022273;28;20050;-82
2023/04/23 02:20:21;;;;;;;21.17;15.90;;;12.60;71.20;;;;;;5022403;28;20033;-82
2023/04/23 02:22:49;;;;;;;20.48;16.02;;;12.60;71.20;;;;;;5022358;28;20066;-82
2023/04/23 02:25:16;;;;;;;19.23;14.88;;;12.50;71.20;;;;;;5038623;28;20033;-82
2023/04/23 02:27:43;;;;;;;19.52;15.63;;;12.60;71.20;;;;;;5056160;28;20474;-83
2023/04/23 02:30:10;;;;;;;20.83;15.82;;;12.60;71.20;;;;;;5022195;28;20032;-82
2023/04/23 02:32:36;;;;;;;18.25;14.40;;;12.50;71.20;;;;;;5039256;28;20083;-82
2023/04/23 02:35:04;;;;;;;17.67;13.25;;;12.50;71.20;;;;;;5056308;28;20025;-83
2023/04/23 02:37:31;;;;;;;18.38;14.52;;;12.50;71.30;;;;;;5038172;28;20024;-81
2023/04/23 02:39:57;;;;;;;19.67;14.90;;;12.50;71.20;;;;;;5006861;28;20029;-84
2023/04/23 02:42:23;;;;;;;18.75;14.13;;;12.50;71.20;;;;;;5022256;28;20385;-81
2023/04/23 02:44:49;;;;;;;19.98;15.13;;;12.40;71.20;;;;;;5021890;28;20462;-82
2023/04/23 02:47:15;;;;;;;19.92;15.10;;;12.50;71.20;;;;;;5022723;28;20033;-82
2023/04/23 02:49:40;;;;;;;20.17;15.13;;;12.40;71.20;;;;;;5041644;28;20069;-82
2023/04/23 02:52:06;;;;;;;20.23;15.18;;;12.40;71.20;;;;;;5025334;28;20508;-82
2023/04/23 02:54:32;;;;;;;19.63;15.63;;;12.50;71.20;;;;;;5027447;28;20032;-82
2023/04/23 02:56:58;;;;;;;19.02;15.02;;;12.40;71.20;;;;;;5010713;28;20091;-83
2023/04/23 02:59:24;;;;;;;18.77;14.57;;;12.40;71.20;;;;;;5027351;28;20055;-85
2023/04/23 03:01:50;;;;;;;18.90;15.48;;;12.40;71.30;;;;;;5011012;28;20037;-83
2023/04/23 03:04:17;;;;;;;19.15;15.35;;;12.40;71.30;;;;;;5028139;28;20091;-82
2023/04/23 03:06:43;;;;;;;19.42;14.82;;;12.40;71.30;;;;;;5041373;28;20021;-82
2023/04/23 03:09:09;;;;;;;17.70;14.23;;;12.40;71.30;;;;;;5038482;28;20033;-83
2023/04/23 03:11:35;;;;;;;19.05;14.23;;;12.30;71.30;;;;;;5004945;28;20461;-82
2023/04/23 03:14:01;;;;;;;16.90;13.05;;;12.40;71.40;;;;;;5020645;28;20078;-82
2023/04/23 03:16:28;;;;;;;18.05;13.50;;;12.40;71.40;;;;;;5037588;28;20067;-82
2023/04/23 03:18:54;;;;;;;19.02;15.07;;;12.30;71.30;;;;;;5005000;28;20040;-82
2023/04/23 03:21:20;;;;;;;18.85;13.75;;;12.30;71.30;;;;;;5021263;28;20017;-81
2023/04/23 03:23:46;;;;;;;20.27;15.13;;;12.30;71.40;;;;;;5037404;28;20086;-83
2023/04/23 03:26:12;;;;;;;18.13;13.77;;;12.30;71.40;;;;;;5004800;28;20021;-84
2023/04/23 03:28:38;;;;;;;16.98;13.73;;;12.30;71.40;;;;;;5021702;28;20029;-81
2023/04/23 03:31:04;;;;;;;16.80;13.10;;;12.30;71.40;;;;;;5021084;28;20072;-81
2023/04/23 03:33:30;;;;;;;19.30;14.52;;;12.30;71.40;;;;;;5021035;28;20381;-82
2023/04/23 03:35:56;;;;;;;18.75;13.93;;;12.20;71.40;;;;;;5020901;28;20021;-81
2023/04/23 03:38:27;;;;;;;18.90;14.63;;;12.20;71.40;;;;;;5021398;28;20537;-82
2023/04/23 03:40:54;;;;;;;18.67;14.35;;;12.30;71.40;;;;;;5020824;28;20076;-83
2023/04/23 03:43:20;;;;;;;18.02;13.60;;;12.20;71.40;;;;;;5020309;28;20065;-81
2023/04/23 03:46:06;;;;;;;16.85;13.25;;;12.20;71.40;;;;;;5039619;28;20077;-81
2023/04/23 03:48:36;;;;;;;15.68;12.20;;;12.20;71.40;;;;;;5005651;28;20029;-82
2023/04/23 03:51:06;;;;;;;16.45;12.98;;;12.20;71.40;;;;;;5005086;28;20114;-81
2023/04/23 03:53:37;;;;;;;17.88;13.85;;;12.20;71.40;;;;;;5005822;28;20052;-82
2023/04/23 03:56:21;;;;;;;15.82;12.55;;;12.20;71.40;;;;;;5040074;28;20075;-83
2023/04/23 03:59:02;;;;;;;15.73;12.23;;;12.10;71.30;;;;;;5022690;28;20029;-83
2023/04/23 04:01:28;;;;;;;17.10;12.98;;;12.10;71.40;;;;;;5037094;28;20036;-84
2023/04/23 04:03:54;;;;;;;16.10;12.05;;;12.10;71.40;;;;;;5039488;28;20044;-82
2023/04/23 04:06:21;;;;;;;17.35;13.82;;;12.10;71.50;;;;;;5020308;28;20036;-80
2023/04/23 04:08:47;;;;;;;16.15;12.80;;;12.10;71.50;;;;;;5004331;28;20033;-82
2023/04/23 04:11:13;;;;;;;16.65;13.18;;;12.10;71.50;;;;;;5020726;28;20029;-81
2023/04/23 04:13:38;;;;;;;18.13;13.15;;;12.00;71.50;;;;;;5036751;28;20104;-81
2023/04/23 04:16:04;;;;;;;16.05;12.45;;;12.00;71.50;;;;;;5053848;28;20040;-81
2023/04/23 04:18:30;;;;;;;15.45;12.50;;;12.00;71.50;;;;;;5036289;28;20129;-81
2023/04/23 04:20:56;;;;;;;16.38;12.48;;;12.00;71.50;;;;;;5036087;28;20029;-81
2023/04/23 04:23:22;;;;;;;18.98;14.25;;;12.00;71.50;;;;;;5003189;28;20981;-81
2023/04/23 04:25:49;;;;;;;16.00;12.60;;;12.00;71.60;;;;;;5019724;28;20098;-82
2023/04/23 04:28:15;;;;;;;16.65;13.18;;;12.00;71.60;;;;;;5020439;28;20036;-82
2023/04/23 04:30:41;;;;;;;16.05;12.25;;;12.00;71.60;;;;;;5004784;28;20463;-81
2023/04/23 04:33:07;;;;;;;14.85;12.07;;;12.00;71.60;;;;;;5036819;28;20029;-80
2023/04/23 04:35:34;;;;;;;17.83;13.32;;;12.00;71.60;;;;;;5037544;28;20048;-82
2023/04/23 04:38:00;;;;;;;15.45;12.23;;;12.00;71.60;;;;;;5004171;28;20442;-84
2023/04/23 04:40:27;;;;;;;16.35;12.57;;;11.90;71.60;;;;;;5036525;28;20088;-81
2023/04/23 04:42:53;;;;;;;16.13;12.30;;;11.90;71.60;;;;;;5036507;28;20036;-84
2023/04/23 04:45:19;;;;;;;15.45;12.73;;;12.00;71.60;;;;;;5003353;28;20037;-83
2023/04/23 04:47:45;;;;;;;16.00;12.68;;;11.90;71.60;;;;;;5003956;28;20060;-82
2023/04/23 04:50:11;;;;;;;16.48;12.73;;;11.90;71.50;;;;;;5019219;28;20044;-82
2023/04/23 04:52:37;;;;;;;16.63;12.38;;;11.90;71.50;;;;;;5019798;28;20029;-82
2023/04/23 04:55:05;;;;;;;16.48;12.38;;;11.90;71.50;;;;;;5019342;28;20033;-87
2023/04/23 04:57:31;;;;;;;15.95;12.70;;;11.90;71.60;;;;;;5035712;28;20036;-81
2023/04/23 04:59:57;;;;;;;15.48;12.07;;;11.90;71.60;;;;;;5019674;28;20025;-82
2023/04/23 05:02:23;;;;;;;14.98;11.80;;;11.90;71.60;;;;;;5019064;28;20055;-82
2023/04/23 05:04:49;;;;;;;15.25;12.32;;;11.90;71.60;;;;;;5019008;28;20028;-83
2023/04/23 05:07:14;;;;;;;14.82;11.55;;;11.90;71.70;;;;;;5019068;28;20036;-83
2023/04/23 05:09:40;;;;;;;14.80;11.82;;;11.80;71.60;;;;;;5020391;28;20466;-82
2023/04/23 05:12:06;;;;;;;16.05;11.95;;;11.90;71.60;;;;;;5019993;28;20381;-82
2023/04/23 05:14:32;;;;;;;16.45;12.40;;;11.80;71.60;;;;;;5019447;28;20095;-82
2023/04/23 05:16:58;;;;;;;15.00;11.43;;;11.80;71.60;;;;;;5035411;28;20021;-82
2023/04/23 05:19:24;;;;;;;14.02;11.52;;;11.80;71.60;;;;;;5037488;28;20021;-83
2023/04/23 05:21:50;;;;;;;15.00;11.80;;;11.80;71.60;;;;;;5040104;28;20036;-81
2023/04/23 05:24:15;;;;;;;14.80;11.60;;;11.80;71.60;;;;;;5023172;28;20025;-81
2023/04/23 05:26:41;;;;;;;14.85;11.98;;;11.80;71.60;;;;;;5039817;28;20029;-84
2023/04/23 05:29:07;;;;;;;14.15;10.77;;;11.80;71.60;;;;;;5039865;28;20025;-82
2023/04/23 05:31:33;;;;;;;14.50;11.20;;;11.80;71.60;;;;;;5039654;28;20106;-82
2023/04/23 05:33:59;;;;;;;15.00;11.70;;;11.90;71.70;;;;;;5039488;28;20194;-84
2023/04/23 05:36:25;;;;;;;15.05;11.55;;;11.80;71.60;;;;;;5040028;28;20029;-82
2023/04/23 05:38:51;;;;;;;15.73;12.07;;;11.90;71.70;;;;;;5023085;28;20110;-82
2023/04/23 05:41:17;;;;;;;15.70;11.68;;;11.90;71.70;;;;;;5057401;28;20033;-82
2023/04/23 05:43:43;;;;;;;14.05;10.75;;;11.90;71.70;;;;;;5056540;28;20024;-82
2023/04/23 05:46:08;;;;;;;14.25;11.55;;;11.90;71.70;;;;;;5039455;28;20116;-82
2023/04/23 05:48:34;;;;;;;13.75;10.90;;;11.90;71.70;;;;;;5022637;28;20040;-82
2023/04/23 05:51:00;;;;;;;14.68;11.80;;;11.90;71.70;;;;;;5022580;28;20045;-81
2023/04/23 05:53:27;;;;;;;14.13;10.57;;;11.90;71.70;;;;;;5022720;28;20525;-82
2023/04/23 05:55:53;;;;;;;14.50;11.45;;;11.90;71.80;;;;;;5057090;28;20036;-82
2023/04/23 05:58:19;;;;;;;14.13;11.20;;;11.90;71.80;;;;;;5006463;28;20029;-82
2023/04/23 06:00:45;;;;;;;12.98;10.30;;;11.90;71.80;;;;;;5039275;28;20017;-86
2023/04/23 06:03:11;;;;;;;13.48;10.57;;;11.90;71.80;;;;;;5038872;28;20040;-82
2023/04/23 06:05:37;;;;;;;12.75;10.93;;;11.90;71.80;;;;;;5005950;28;20070;-82
2023/04/23 06:08:03;;;;;;;12.98;10.40;;;11.90;71.90;;;;;;5022952;28;20044;-81
2023/04/23 06:10:29;;;;;;;12.93;9.75;;;11.90;71.80;;;;;;5022431;28;20499;-82
2023/04/23 06:12:55;;;;;;;12.45;10.00;;;11.90;71.80;;;;;;5005948;28;20029;-86
2023/04/23 06:15:25;;;;;;;13.35;9.68;;;11.90;71.80;;;;;;5038440;28;20033;-86
2023/04/23 06:17:52;;;;;;;12.88;10.10;;;11.90;71.80;;;;;;5022289;28;20029;-81
2023/04/23 06:20:18;;;;;;;12.40;9.63;;;12.00;71.90;;;;;;5006328;28;20022;-82
2023/04/23 06:22:44;;;;;;;11.75;9.43;;;12.00;71.90;;;;;;5022064;28;20037;-82
2023/04/23 06:25:09;;;;;;;12.07;9.55;;;11.90;71.80;;;;;;5022805;28;20053;-81
2023/04/23 06:27:35;;;;;;;12.35;9.50;;;12.00;71.90;;;;;;5026129;28;20481;-85
2023/04/23 06:30:08;;;;;;;11.93;9.07;;;12.00;71.90;;;;;;5026409;28;20515;-92
2023/04/23 06:32:35;;;;;;;11.57;9.65;;;12.00;71.90;;;;;;5006890;28;20098;-84
2023/04/23 06:35:00;;;;;;;11.10;8.90;;;12.00;71.90;;;;;;5021950;28;20033;-82
2023/04/23 06:37:27;;;;;;;11.25;8.75;;;12.00;71.90;;;;;;5055788;28;20035;-81
2023/04/23 06:39:53;;;;;;;10.80;8.75;;;12.00;71.90;;;;;;5038390;28;20029;-83
2023/04/23 06:42:19;;;;;;;12.52;9.73;;;12.00;71.90;;;;;;5038024;28;20032;-82
2023/04/23 06:44:58;;;;;;;10.68;8.40;;;12.00;71.90;;;;;;5038343;28;20040;-81
2023/04/23 06:47:23;;;;;;;10.35;8.65;;;12.00;71.90;;;;;;5005658;28;20041;-83
2023/04/23 06:49:49;;;;;;;10.88;8.40;;;12.00;71.90;;;;;;5034286;28;20092;-82
2023/04/23 06:52:15;;;;;;;11.70;8.82;;;12.00;72.00;;;;;;5018073;28;20433;-82
2023/04/23 06:54:41;;;;;;;11.73;8.88;;;12.00;72.00;;;;;;5034665;28;20062;-82
2023/04/23 06:57:07;;;;;;;10.85;8.82;;;12.10;72.10;;;;;;5002009;28;20041;-82
2023/04/23 06:59:32;;;;;;;11.07;8.45;;;12.10;72.10;;;;;;5018205;28;20025;-83
2023/04/23 07:02:00;;;;;;;9.70;8.25;;;12.10;72.10;;;;;;5034704;28;20041;-83
2023/04/23 07:04:25;;;;;;;10.82;8.48;;;12.10;72.10;;;;;;5018326;28;20025;-83
2023/04/23 07:06:52;;;;;;;9.80;7.85;;;12.10;72.10;;;;;;5001739;28;20095;-82
2023/04/23 07:09:18;;;;;;;9.10;7.97;;;12.10;72.10;;;;;;5018619;28;20034;-84
2023/04/23 07:11:43;;;;;;;8.50;7.50;;;12.20;72.20;;;;;;5002441;28;20347;-85
2023/04/23 07:14:09;;;;;;;10.05;8.35;;;12.10;72.20;;;;;;5034484;28;20036;-84
2023/04/23 07:16:35;;;;;;;10.27;7.95;;;12.20;72.90;;;;;;5017782;28;20087;-84
2023/04/23 07:19:01;;;;;;;9.35;7.55;;;12.20;72.30;;;;;;5034010;28;20033;-82
2023/04/23 07:21:28;;;;;;;9.57;7.63;;;12.20;72.30;;;;;;5034084;28;20026;-82
2023/04/23 07:24:05;;;;;;;8.82;7.15;;;12.20;72.30;;;;;;5034155;28;20124;-84
2023/04/23 07:26:35;;;;;;;8.45;7.15;;;12.20;72.40;;;;;;5019382;28;20091;-82
2023/04/23 07:29:02;;;;;;;9.07;7.40;;;12.20;72.30;;;;;;5018071;28;20026;-83
2023/04/23 07:31:28;;;;;;;8.93;7.38;;;12.30;72.40;;;;;;5034223;28;20029;-83
2023/04/23 07:33:55;;;;;;;8.68;7.28;;;12.30;72.40;;;;;;5001494;28;20033;-84
2023/04/23 07:36:21;;;;;;;8.77;6.93;;;12.30;72.40;;;;;;5034887;28;20083;-86
2023/04/23 07:38:47;;;;;;;8.10;6.82;;;12.30;72.40;;;;;;5018038;28;20029;-86
2023/04/23 07:41:13;;;;;;;8.02;6.85;;;12.30;72.30;;;;;;5033799;28;20390;-83
2023/04/23 07:43:39;;;;;;;8.68;7.00;;;12.30;72.40;;;;;;5034057;28;20144;-83
2023/04/23 07:46:06;;;;;;;9.45;6.53;;;12.40;72.50;;;;;;5018515;28;20089;-88
2023/04/23 07:48:35;;;;;;;8.63;6.75;;;12.40;72.40;;;;;;5041992;28;20030;-85
2023/04/23 07:51:01;;;;;;;7.85;6.15;;;12.40;72.40;;;;;;5045828;28;20059;-86
2023/04/23 07:53:27;;;;;;;8.70;7.03;;;12.40;72.40;;;;;;5030262;28;20021;-84
2023/04/23 07:55:57;;;;;;;7.90;6.57;;;12.40;72.40;;;;;;5045412;28;20028;-85
2023/04/23 07:58:26;;;;;;;8.38;6.50;;;12.50;72.40;;;;;;5046581;28;20057;-83
2023/04/23 08:00:51;;;;;;;8.38;6.47;;;12.50;72.40;;;;;;5045021;28;20032;-85
2023/04/23 08:03:18;;;;;;;8.25;6.60;;;12.50;72.40;;;;;;5004253;28;20021;-84
2023/04/23 08:05:44;;;;;;;8.07;6.90;;;12.50;72.40;;;;;;5018843;28;20116;-85
2023/04/23 08:08:11;;;;;;;7.55;6.28;;;12.60;72.40;;;;;;5018110;28;20051;-83
2023/04/23 08:10:37;;;;;;;8.60;6.45;;;12.60;72.40;;;;;;5034228;28;20493;-84
2023/04/23 08:13:06;;;;;;;7.63;6.60;;;12.60;72.30;;;;;;5034282;28;20034;-84
2023/04/23 08:15:31;;;;;;;6.55;5.20;;;12.70;72.30;;;;;;5016610;28;20066;-84
2023/04/23 08:17:57;;;;;;;8.60;5.93;;;12.70;72.30;;;;;;5016696;28;20024;-85
2023/04/23 08:20:24;;;;;;;7.55;5.60;;;12.80;72.30;;;;;;5033516;28;20048;-85
2023/04/23 08:22:52;;;;;;;7.13;5.20;;;12.80;72.20;;;;;;5034299;28;20025;-84
2023/04/23 08:25:19;;;;;;;7.55;5.57;;;12.90;72.20;;;;;;5001201;28;20167;-83
2023/04/23 08:27:45;;;;;;;7.72;5.57;;;12.90;72.20;;;;;;5035833;28;20128;-83
2023/04/23 08:30:12;;;;;;;7.18;5.15;;;12.90;72.10;;;;;;5033595;28;20052;-85
2023/04/23 08:32:41;;;;;;;7.70;5.70;;;13.00;72.10;;;;;;5016607;28;20013;-83
2023/04/23 08:35:07;;;;;;;6.38;5.32;;;13.10;72.20;;;;;;5033132;28;20120;-90
2023/04/23 08:37:33;;;;;;;6.57;5.00;;;13.10;72.10;;;;;;5016873;28;20020;-85
2023/04/23 08:40:00;;;;;;;7.05;4.60;;;13.10;72.00;;;;;;5000085;28;20034;-85
2023/04/23 08:42:30;;;;;;;6.65;5.05;;;13.20;72.00;;;;;;5016931;28;20022;-84
2023/04/23 08:44:56;;;;;;;6.00;4.60;;;13.20;71.90;;;;;;5017123;28;20366;-86
2023/04/23 08:47:24;;;;;;;7.93;5.63;;;13.30;71.90;;;;;;5016280;28;20030;-83
2023/04/23 08:49:53;;;;;;;5.82;4.55;;;13.40;72.00;;;;;;5032672;28;20038;-86
2023/04/23 08:52:23;;;;;;;5.93;4.75;;;13.40;71.90;;;;;;5017035;28;20033;-83
2023/04/23 08:54:52;;;;;;;7.60;5.03;;;13.50;72.00;;;;;;5037643;28;20154;-83
2023/04/23 08:57:18;;;;;;;6.22;4.30;;;13.50;71.90;;;;;;5032206;28;20037;-83
2023/04/23 08:59:46;;;;;;;5.63;4.72;;;13.60;71.90;;;;;;5031747;28;20129;-82
2023/04/23 09:02:14;;;;;;;5.63;4.60;;;13.70;71.90;;;;;;5032163;28;20025;-83
2023/04/23 09:04:40;;;;;;;6.63;4.88;;;13.80;71.90;;;;;;5033130;28;20128;-83
2023/04/23 09:07:12;;;;;;;5.80;4.68;;;13.80;71.80;;;;;;5016647;28;20120;-83
2023/04/23 09:09:39;;;;;;;6.65;4.50;;;13.90;71.90;;;;;;5033086;28;20038;-84
2023/04/23 09:12:06;;;;;;;6.00;4.30;;;14.00;72.50;;;;;;5015916;28;20021;-83
2023/04/23 09:14:33;;;;;;;6.05;4.45;;;14.10;72.00;;;;;;5016486;28;20030;-83
2023/04/23 09:17:00;;;;;;;6.30;4.45;;;14.10;71.90;;;;;;5033132;28;20037;-85
2023/04/23 09:19:27;;;;;;;5.32;4.03;;;14.20;72.00;;;;;;5016543;28;20033;-84
2023/04/23 09:21:53;;;;;;;5.97;3.97;;;14.30;72.00;;;;;;5032412;28;20033;-82
2023/04/23 09:24:23;;;;;;;5.25;4.25;;;14.30;72.00;;;;;;5033717;28;20117;-88
2023/04/23 09:26:50;;;;;;;6.30;3.90;;;14.40;72.50;;;;;;5016948;28;20468;-87
2023/04/23 09:29:22;;;;;;;7.15;4.00;;;14.50;72.60;;;;;;5016711;28;20025;-85
2023/04/23 09:31:54;;;;;;;5.93;3.55;;;14.70;72.80;;;;;;5032871;28;20037;-84
2023/04/23 09:34:22;;;;;;;5.68;3.42;;;14.80;72.80;;;;;;5017079;28;20065;-87
2023/04/23 09:36:49;;;;;;;5.72;3.80;;;14.90;72.80;;;;;;5016959;28;20023;-80
2023/04/23 09:39:17;;;;;;;4.95;2.85;;;15.00;72.60;;;;;;5015831;28;20026;-84
2023/04/23 09:41:47;;;;;;;4.63;3.22;;;15.20;72.50;;;;;;5032263;28;20078;-84
2023/04/23 09:44:25;;;;;;;4.68;3.13;;;15.30;72.40;;;;;;5032408;28;20092;-84
2023/04/23 09:46:50;;;;;;;4.70;2.97;;;15.40;72.50;;;;;;5032347;28;20026;-84
2023/04/23 09:49:16;;;;;;;5.50;2.60;;;15.40;72.20;;;;;;5032151;28;20017;-84
2023/04/23 09:51:47;;;;;;;3.85;2.50;;;15.50;72.20;;;;;;5015453;28;20513;-84
2023/04/23 09:54:20;;;;;;;3.60;2.50;;;15.60;72.30;;;;;;5016138;28;20048;-84
2023/04/23 09:56:52;;;;;;;4.57;2.47;;;15.70;72.30;;;;;;5032938;28;20097;-86
2023/04/23 09:59:23;;;;;;;4.25;2.65;;;15.70;72.20;;;;;;4999892;28;20029;-90
2023/04/23 10:01:49;;;;;;;3.45;2.60;;;15.80;72.10;;;;;;5032954;28;20040;-88
2023/04/23 10:04:23;;;;;;;3.92;2.50;;;15.90;72.00;;;;;;5033057;28;20026;-85
2023/04/23 10:07:00;;;;;;;3.53;2.43;;;16.00;72.10;;;;;;5035630;28;20040;-85
2023/04/23 10:09:28;;;;;;;2.95;2.25;;;16.10;72.10;;;;;;5035992;28;20033;-84
2023/04/23 10:11:55;;;;;;;3.10;2.40;;;16.20;71.90;;;;;;5019784;28;20022;-87
2023/04/23 10:14:22;;;;;;;3.10;2.30;;;16.20;71.90;;;;;;5035450;28;20038;-85
2023/04/23 10:16:51;;;;;;;3.35;2.15;;;16.30;71.90;;;;;;5036752;28;20033;-86
2023/04/23 10:19:21;;;;;;;3.42;2.15;;;16.40;71.80;;;;;;5035452;28;20148;-84
2023/04/23 10:22:06;;;;;;;3.38;2.28;;;16.50;71.80;;;;;;5035745;28;20036;-87
2023/04/23 10:24:33;;;;;;;;;;;16.60;71.70;;;;;;5036920;28;20029;-85
2023/04/23 10:27:01;;;;;;;2.03;1.67;;;16.70;71.20;;;;;;5035784;28;19913;-85
2023/04/23 10:29:32;;;;;;;2.83;1.80;;;16.80;71.30;;;;;;5019111;28;20037;-84
2023/04/23 10:32:02;;;;;;;3.58;1.88;;;16.80;71.30;;;;;;5019013;28;20036;-84
2023/04/23 10:34:30;;;;;;;3.17;1.80;;;17.00;71.30;;;;;;5035885;28;20087;-84
2023/04/23 10:36:58;;;;;;;3.78;2.00;;;17.10;71.40;;;;;;5036300;28;20050;-83
2023/04/23 10:39:31;;;;;;;2.95;1.90;;;17.10;71.30;;;;;;5018182;28;20136;-86
2023/04/23 10:41:58;;;;;;;3.00;1.90;;;17.20;71.50;;;;;;5035120;28;20351;-82
2023/04/23 10:44:41;;;;;;;2.65;1.60;;;17.30;71.20;;;;;;5034728;28;20027;-87
2023/04/23 10:47:14;;;;;;;3.28;2.15;;;17.40;71.30;;;;;;5035622;28;20029;-83
2023/04/23 10:49:41;;;;;;;2.80;1.88;;;17.50;71.30;;;;;;5037590;28;20048;-83
2023/04/23 10:52:08;;;;;;;2.60;1.40;;;17.60;71.30;;;;;;5038323;28;20029;-84
2023/04/23 10:54:35;;;;;;;2.50;1.58;;;17.70;71.30;;;;;;5055439;28;20029;-83
2023/04/23 10:57:05;;;;;;;2.03;1.50;;;17.80;71.40;;;;;;5021826;28;20056;-82
2023/04/23 10:59:33;;;;;;;2.67;1.40;;;17.90;71.50;;;;;;5037754;28;20488;-83
2023/04/23 11:02:07;;;;;;;2.08;1.58;;;17.90;71.50;;;;;;5055788;28;20033;-84
2023/04/23 11:04:34;;;;;;;3.28;1.60;;;18.00;71.60;;;;;;5055525;28;20025;-84
2023/04/23 11:07:10;;;;;;;2.08;1.70;;;18.00;71.40;;;;;;5056872;28;20033;-83
2023/04/23 11:09:40;;;;;;;2.75;1.60;;;18.10;71.50;;;;;;5039339;28;20043;-83
2023/04/23 11:12:29;;;;;;;1.33;1.23;;;18.20;71.40;;;;;;5056202;28;20055;-83
2023/04/23 11:14:56;;;;;;;1.73;1.20;;;18.20;71.40;;;;;;5039141;28;20033;-83
2023/04/23 11:17:48;;;;;;;1.98;1.65;;;18.30;71.40;;;;;;5038578;28;20024;-86
2023/04/23 11:20:19;;;;;;;1.88;1.38;;;18.40;71.60;;;;;;5028840;28;20029;-85
2023/04/23 11:22:47;;;;;;;1.17;1.05;;;18.50;71.40;;;;;;5056871;28;20025;-83
2023/04/23 11:25:20;;;;;;;1.70;1.30;;;18.50;71.30;;;;;;5058388;28;20021;-84
2023/04/23 11:27:48;;;;;;;3.05;1.27;;;18.60;71.50;;;;;;5038301;28;20533;-88
2023/04/23 11:30:22;;;;;;;1.45;1.17;;;18.70;71.50;;;;;;5037462;28;20028;-86
2023/04/23 11:32:50;;;;;;;2.42;1.70;;;18.70;71.60;;;;;;5021112;28;20488;-84
2023/04/23 11:35:21;;;;;;;1.55;1.20;;;18.80;71.50;;;;;;5021237;28;20036;-83
2023/04/23 11:37:48;;;;;;;1.92;1.30;;;18.80;71.40;;;;;;5021399;28;20025;-85
2023/04/23 11:40:18;;;;;;;2.22;1.30;;;18.90;71.40;;;;;;5054964;28;20029;-85
2023/04/23 11:42:48;;;;;;;2.33;1.10;;;18.90;71.40;;;;;;5037469;28;20063;-83
2023/04/23 11:45:25;;;;;;;1.73;1.42;;;19.10;71.40;;;;;;5020663;28;20029;-83
2023/04/23 11:47:57;;;;;;;1.75;1.20;;;19.10;71.40;;;;;;5022732;28;20060;-81
2023/04/23 11:50:25;;;;;;;1.95;1.20;;;19.20;71.40;;;;;;5037564;28;20042;-82
2023/04/23 11:52:54;;;;;;;1.85;1.40;;;19.20;71.30;;;;;;5020415;28;20044;-83
2023/04/23 11:55:21;;;;;;;1.77;1.30;;;19.20;71.30;;;;;;5036625;28;20033;-83
2023/04/23 11:57:49;;;;;;;1.65;1.05;;;19.30;71.30;;;;;;5037221;28;20066;-82
2023/04/23 12:00:22;;;;;;;1.58;1.23;;;19.30;71.30;;;;;;5037021;28;20029;-83
2023/04/23 12:03:02;;;;;;;1.65;1.20;;;19.40;72.00;;;;;;5019299;28;20454;-82
2023/04/23 12:05:34;;;;;;;1.75;1.30;;;19.50;71.40;;;;;;5036231;28;20086;-82
2023/04/23 12:08:19;;;;;;;1.02;0.93;;;19.50;71.30;;;;;;5020234;28;20515;-82
2023/04/23 12:10:50;;;;;;;1.67;1.02;;;19.60;71.30;;;;;;5036884;28;20025;-82
2023/04/23 12:13:25;;;;;;;1.75;1.08;;;19.60;71.20;;;;;;5054314;28;20047;-82
2023/04/23 12:15:55;;;;;;;1.20;1.10;;;19.70;71.30;;;;;;5020745;28;20476;-83
2023/04/23 12:18:29;;;;;;;3.10;1.30;;;19.70;71.20;;;;;;5020290;28;20533;-82
2023/04/23 12:21:03;;;;;;;1.10;1.00;;;19.80;71.20;;;;;;5054091;28;20029;-83
2023/04/23 12:23:29;;;;;;;1.55;1.10;;;19.90;71.20;;;;;;5036619;28;20032;-87
2023/04/23 12:25:55;;;;;;;1.23;1.00;;;19.90;71.10;;;;;;5053791;28;20033;-84
2023/04/23 12:28:25;;;;;;;1.80;1.20;;;20.00;71.10;;;;;;5036172;28;20055;-84
2023/04/23 12:30:51;;;;;;;1.25;1.10;;;20.00;71.20;;;;;;5036550;28;20411;-85
2023/04/23 12:33:17;;;;;;;1.30;1.20;;;20.00;71.10;;;;;;5036714;28;20040;-84
2023/04/23 12:35:50;;;;;;;1.33;1.20;;;20.10;71.10;;;;;;5054088;28;20032;-87
2023/04/23 12:38:29;;;;;;;1.70;1.05;;;20.20;71.20;;;;;;5036368;28;20466;-87